createdAt,value
2023-03-29T00:00:50.880Z,99819.84
2023-03-29T00:03:17.531Z,99819.00
2023-03-29T00:05:46.831Z,99793.03
2023-03-29T00:08:14.910Z,99789.50
2023-03-29T00:10:42.156Z,99785.09
2023-03-29T00:13:08.547Z,99778.97
2023-03-29T00:15:34.896Z,99785.94
2023-03-29T00:18:01.492Z,99793.75
2023-03-29T00:20:28.855Z,99794.66
2023-03-29T00:22:55.672Z,99782.56
2023-03-29T00:25:22.068Z,99782.63
2023-03-29T00:27:48.538Z,99787.78
2023-03-29T00:30:15.528Z,99778.31
2023-03-29T00:32:41.977Z,99771.41
2023-03-29T00:35:09.264Z,99774.00
2023-03-29T00:37:35.652Z,99763.63
2023-03-29T00:40:02.224Z,99765.34
2023-03-29T00:42:28.646Z,99767.91
2023-03-29T00:45:02.160Z,99759.28
2023-03-29T00:47:53.341Z,99720.13
2023-03-29T00:50:26.454Z,99746.00
2023-03-29T00:52:57.500Z,99681.94
2023-03-29T00:55:24.209Z,99680.00
2023-03-29T00:57:50.553Z,99679.03
2023-03-29T01:00:20.758Z,99662.47
2023-03-29T01:02:51.294Z,99646.81
2023-03-29T01:05:20.095Z,99654.50
2023-03-29T01:07:58.309Z,99636.22
2023-03-29T01:10:34.260Z,99664.84
2023-03-29T01:13:06.902Z,99669.97
2023-03-29T01:15:33.293Z,99746.97
2023-03-29T01:18:02.122Z,99750.34
2023-03-29T01:20:31.539Z,99784.13
2023-03-29T01:23:22.775Z,99842.03
2023-03-29T01:26:24.938Z,99842.91
2023-03-29T01:28:53.345Z,99788.38
2023-03-29T01:31:25.145Z,99872.41
2023-03-29T01:33:53.766Z,99892.28
2023-03-29T01:36:34.965Z,99913.88
2023-03-29T01:39:03.527Z,99845.44
2023-03-29T01:41:59.212Z,99759.78
2023-03-29T01:44:48.489Z,99865.44
2023-03-29T01:47:31.682Z,99971.88
2023-03-29T01:50:12.930Z,99836.75
2023-03-29T01:52:42.941Z,99964.97
2023-03-29T01:55:15.069Z,99859.31
2023-03-29T01:57:42.402Z,99930.47
2023-03-29T02:00:11.218Z,100019.63
2023-03-29T02:02:40.141Z,100080.97
2023-03-29T02:05:09.998Z,100100.00
2023-03-29T02:07:38.120Z,100089.59
2023-03-29T02:10:06.692Z,100083.50
2023-03-29T02:12:33.503Z,100114.69
2023-03-29T02:15:01.240Z,100105.19
2023-03-29T02:17:27.919Z,100093.00
2023-03-29T02:20:14.707Z,100095.63
2023-03-29T02:23:18.601Z,100091.34
2023-03-29T02:25:45.602Z,100105.13
2023-03-29T02:28:11.983Z,100039.31
2023-03-29T02:30:44.434Z,100028.13
2023-03-29T02:33:19.261Z,100009.97
2023-03-29T02:35:49.238Z,99974.50
2023-03-29T02:38:17.100Z,99971.88
2023-03-29T02:40:43.990Z,99989.19
2023-03-29T02:43:10.709Z,99950.19
2023-03-29T02:45:40.391Z,99930.31
2023-03-29T02:48:09.025Z,99942.41
2023-03-29T02:50:37.227Z,99893.03
2023-03-29T02:53:07.507Z,99876.63
2023-03-29T02:55:36.232Z,99873.19
2023-03-29T02:58:08.460Z,99848.84
2023-03-29T03:00:40.946Z,99819.47
2023-03-29T03:03:08.156Z,99790.78
2023-03-29T03:05:34.791Z,99763.91
2023-03-29T03:08:01.332Z,99726.75
2023-03-29T03:10:27.803Z,99698.16
2023-03-29T03:12:54.480Z,99665.25
2023-03-29T03:15:20.917Z,99621.97
2023-03-29T03:17:49.168Z,99616.78
2023-03-29T03:20:15.850Z,99587.31
2023-03-29T03:22:43.872Z,99563.88
2023-03-29T03:25:11.339Z,99546.63
2023-03-29T03:27:38.285Z,99554.41
2023-03-29T03:30:05.531Z,99544.03
2023-03-29T03:32:33.857Z,99533.53
2023-03-29T03:35:00.709Z,99531.91
2023-03-29T03:37:27.649Z,99520.72
2023-03-29T03:39:54.721Z,99509.41
2023-03-29T03:42:21.542Z,99511.31
2023-03-29T03:44:48.535Z,99514.88
2023-03-29T03:47:15.049Z,99527.84
2023-03-29T03:49:41.440Z,99523.56
2023-03-29T03:52:08.670Z,99531.50
2023-03-29T03:54:35.021Z,99539.31
2023-03-29T03:57:02.347Z,99542.84
2023-03-29T03:59:28.776Z,99544.72
2023-03-29T04:01:55.698Z,99546.50
2023-03-29T04:04:23.268Z,99550.88
2023-03-29T04:06:50.610Z,99562.13
2023-03-29T04:09:18.010Z,99578.66
2023-03-29T04:11:44.411Z,99572.56
2023-03-29T04:14:11.126Z,99582.16
2023-03-29T04:16:37.455Z,99574.38
2023-03-29T04:19:03.984Z,99575.38
2023-03-29T04:21:30.674Z,99569.38
2023-03-29T04:23:57.210Z,99560.69
2023-03-29T04:26:23.864Z,99541.69
2023-03-29T04:28:50.497Z,99550.28
2023-03-29T04:31:16.888Z,99543.41
2023-03-29T04:33:46.796Z,99533.84
2023-03-29T04:36:13.958Z,99528.66
2023-03-29T04:38:43.357Z,99524.34
2023-03-29T04:41:15.162Z,99517.44
2023-03-29T04:43:41.513Z,99494.88
2023-03-29T04:46:08.220Z,99484.50
2023-03-29T04:48:36.587Z,99475.03
2023-03-29T04:51:03.175Z,99451.66
2023-03-29T04:53:29.859Z,99441.31
2023-03-29T04:55:57.947Z,99434.25
2023-03-29T04:58:27.136Z,99417.00
2023-03-29T05:00:59.919Z,99413.59
2023-03-29T05:03:26.965Z,99384.19
2023-03-29T05:05:53.441Z,99380.66
2023-03-29T05:08:20.044Z,99378.06
2023-03-29T05:10:47.497Z,99365.00
2023-03-29T05:13:13.851Z,99371.88
2023-03-29T05:15:41.346Z,99370.19
2023-03-29T05:18:08.013Z,99365.91
2023-03-29T05:20:34.477Z,99356.25
2023-03-29T05:23:01.573Z,99350.97
2023-03-29T05:25:28.140Z,99357.94
2023-03-29T05:27:54.483Z,99345.88
2023-03-29T05:30:21.050Z,99344.06
2023-03-29T05:32:47.941Z,99338.03
2023-03-29T05:35:14.511Z,99337.09
2023-03-29T05:37:40.985Z,99343.94
2023-03-29T05:40:10.066Z,99337.75
2023-03-29T05:42:37.866Z,99333.28
2023-03-29T05:45:05.209Z,99332.50
2023-03-29T05:47:31.713Z,99329.88
2023-03-29T05:49:58.108Z,99336.88
2023-03-29T05:52:24.953Z,99326.34
2023-03-29T05:54:51.515Z,99329.88
2023-03-29T05:57:17.982Z,99327.13
2023-03-29T05:59:44.554Z,99338.34
2023-03-29T06:02:11.726Z,99333.16
2023-03-29T06:04:38.358Z,99345.16
2023-03-29T06:07:05.260Z,99348.63
2023-03-29T06:09:32.097Z,99335.56
2023-03-29T06:11:58.840Z,99364.06
2023-03-29T06:14:25.212Z,99353.59
2023-03-29T06:16:51.685Z,99361.22
2023-03-29T06:19:18.686Z,99368.06
2023-03-29T06:21:45.330Z,99375.75
2023-03-29T06:24:11.694Z,99384.38
2023-03-29T06:26:38.041Z,99390.38
2023-03-29T06:29:04.469Z,99400.72
2023-03-29T06:31:31.305Z,99395.44
2023-03-29T06:33:58.233Z,99404.75
2023-03-29T06:36:24.716Z,99406.47
2023-03-29T06:38:51.059Z,99423.78
2023-03-29T06:41:17.420Z,99424.53
2023-03-29T06:43:43.938Z,99427.78
2023-03-29T06:46:12.293Z,99430.13
2023-03-29T06:48:39.427Z,99426.72
2023-03-29T06:51:07.533Z,99438.75
2023-03-29T06:53:34.325Z,99438.59
2023-03-29T06:56:05.107Z,99441.09
2023-03-29T06:58:31.488Z,99443.53
2023-03-29T07:01:02.503Z,99454.59
2023-03-29T07:03:29.275Z,99455.50
2023-03-29T07:06:04.215Z,99469.22
2023-03-29T07:08:35.022Z,99470.94
2023-03-29T07:11:03.260Z,99481.41
2023-03-29T07:13:30.650Z,99482.09
2023-03-29T07:15:57.425Z,99480.19
2023-03-29T07:18:23.853Z,99486.97
2023-03-29T07:20:50.265Z,99486.16
2023-03-29T07:23:17.909Z,99493.03
2023-03-29T07:25:44.737Z,99486.69
2023-03-29T07:28:11.301Z,99485.69
2023-03-29T07:30:37.731Z,99483.69
2023-03-29T07:33:04.459Z,99481.97
2023-03-29T07:35:31.139Z,99474.66
2023-03-29T07:37:58.323Z,99473.63
2023-03-29T07:40:26.049Z,99481.13
2023-03-29T07:42:54.418Z,99470.59
2023-03-29T07:45:26.253Z,99472.03
2023-03-29T07:47:57.700Z,99459.59
2023-03-29T07:50:24.264Z,99462.97
2023-03-29T07:52:50.929Z,99467.19
2023-03-29T07:55:17.762Z,99468.63
2023-03-29T07:57:44.420Z,99450.06
2023-03-29T08:00:16.186Z,99443.78
2023-03-29T08:02:44.091Z,99445.22
2023-03-29T08:05:12.649Z,99440.47
2023-03-29T08:07:40.158Z,99445.34
2023-03-29T08:10:11.496Z,99422.50
2023-03-29T08:12:38.025Z,99405.66
2023-03-29T08:15:05.385Z,99409.13
2023-03-29T08:17:32.540Z,99402.00
2023-03-29T08:19:58.971Z,99398.31
2023-03-29T08:22:25.334Z,99375.31
2023-03-29T08:24:51.850Z,99370.09
2023-03-29T08:27:18.511Z,99363.47
2023-03-29T08:29:44.902Z,99366.81
2023-03-29T08:32:11.492Z,99364.88
2023-03-29T08:34:38.460Z,99361.59
2023-03-29T08:37:04.992Z,99356.38
2023-03-29T08:39:31.727Z,99366.72
2023-03-29T08:42:28.872Z,99362.28
2023-03-29T08:45:02.993Z,99357.75
2023-03-29T08:48:06.936Z,99362.00
2023-03-29T08:50:38.440Z,99355.81
2023-03-29T08:53:07.252Z,99374.16
2023-03-29T08:55:37.684Z,99368.75
2023-03-29T08:58:07.514Z,99371.94
2023-03-29T09:00:37.349Z,99370.06
2023-03-29T09:03:09.167Z,99380.56
2023-03-29T09:05:40.070Z,99390.00
2023-03-29T09:08:13.583Z,99387.38
2023-03-29T09:10:44.313Z,99383.63
2023-03-29T09:13:35.379Z,99380.84
2023-03-29T09:16:07.840Z,99378.81
2023-03-29T09:18:50.652Z,99382.09
2023-03-29T09:21:30.052Z,99391.66
2023-03-29T09:24:11.344Z,99394.22
2023-03-29T09:26:59.127Z,99399.56
2023-03-29T09:29:41.279Z,99401.28
2023-03-29T09:32:17.876Z,99391.47
2023-03-29T09:34:45.655Z,99392.97
2023-03-29T09:37:15.731Z,99393.28
2023-03-29T09:39:42.098Z,99397.06
2023-03-29T09:42:09.165Z,99394.88
2023-03-29T09:44:47.863Z,99398.28
2023-03-29T09:47:24.901Z,99388.31
2023-03-29T09:49:54.743Z,99417.00
2023-03-29T09:52:21.441Z,99394.91
2023-03-29T09:54:47.838Z,99404.50
2023-03-29T09:57:16.413Z,99380.38
2023-03-29T09:59:43.908Z,99396.72
2023-03-29T10:02:12.851Z,99422.06
2023-03-29T10:04:41.929Z,99441.50
2023-03-29T10:07:09.205Z,99442.88
2023-03-29T10:09:35.845Z,99426.50
2023-03-29T10:12:06.539Z,99410.03
2023-03-29T10:14:38.334Z,99420.66
2023-03-29T10:17:07.086Z,99426.13
2023-03-29T10:19:36.946Z,99430.97
2023-03-29T10:22:18.928Z,99405.69
2023-03-29T10:24:52.744Z,99395.00
2023-03-29T10:27:29.452Z,99406.47
2023-03-29T10:29:55.939Z,99388.69
2023-03-29T10:32:22.891Z,99376.44
2023-03-29T10:34:50.194Z,99369.88
2023-03-29T10:37:19.143Z,99379.81
2023-03-29T10:39:46.320Z,99394.78
2023-03-29T10:42:17.406Z,99394.66
2023-03-29T10:44:43.819Z,99381.53
2023-03-29T10:47:16.967Z,99379.59
2023-03-29T10:49:46.974Z,99393.44
2023-03-29T10:52:14.256Z,99377.63
2023-03-29T10:54:40.719Z,99367.63
2023-03-29T10:57:12.053Z,99350.03
2023-03-29T10:59:47.551Z,99324.47
2023-03-29T11:02:14.190Z,99323.56
2023-03-29T11:05:18.605Z,99318.59
2023-03-29T11:07:48.732Z,99340.09
2023-03-29T11:10:43.107Z,99359.59
2023-03-29T11:13:23.469Z,99353.28
2023-03-29T11:16:08.566Z,99377.94
2023-03-29T11:18:50.550Z,99420.28
2023-03-29T11:21:24.317Z,99442.69
2023-03-29T11:24:15.252Z,99452.22
2023-03-29T11:26:44.532Z,99438.69
2023-03-29T11:29:25.638Z,99422.28
2023-03-29T11:31:55.067Z,99400.31
2023-03-29T11:34:59.699Z,99396.19
2023-03-29T11:37:35.503Z,99391.47
2023-03-29T11:40:17.037Z,99352.56
2023-03-29T11:42:45.233Z,99369.72
2023-03-29T11:45:15.132Z,99404.44
2023-03-29T11:47:41.744Z,99415.75
2023-03-29T11:50:36.571Z,99415.16
2023-03-29T11:53:12.775Z,99425.78
2023-03-29T11:55:39.375Z,99423.97
2023-03-29T11:58:30.889Z,99375.97
2023-03-29T12:01:06.288Z,99438.72
2023-03-29T12:03:53.019Z,99427.94
2023-03-29T12:06:22.478Z,99392.22
2023-03-29T12:09:03.957Z,99389.56
2023-03-29T12:11:48.238Z,99371.13
2023-03-29T12:14:15.392Z,99335.97
2023-03-29T12:16:44.766Z,99346.44
2023-03-29T12:19:20.471Z,99352.84
2023-03-29T12:21:46.951Z,99333.03
2023-03-29T12:24:14.089Z,99306.81
2023-03-29T12:26:49.768Z,99292.31
2023-03-29T12:29:34.906Z,99297.56
2023-03-29T12:32:32.553Z,99313.59
2023-03-29T12:35:24.599Z,99301.88
2023-03-29T12:38:12.838Z,99283.97
2023-03-29T12:40:44.003Z,99274.75
2023-03-29T12:43:19.331Z,99274.44
2023-03-29T12:45:49.219Z,99283.06
2023-03-29T12:48:17.364Z,99271.50
2023-03-29T12:50:51.860Z,99266.25
2023-03-29T12:53:31.552Z,99250.97
2023-03-29T12:56:04.137Z,99248.81
2023-03-29T12:58:39.682Z,99247.22
2023-03-29T13:01:08.611Z,99274.50
2023-03-29T13:03:42.727Z,99373.50
2023-03-29T13:06:10.083Z,99437.53
2023-03-29T13:08:38.697Z,99412.72
2023-03-29T13:11:05.739Z,99391.00
2023-03-29T13:13:36.899Z,99351.06
2023-03-29T13:16:16.707Z,99369.13
2023-03-29T13:18:58.088Z,99374.31
2023-03-29T13:21:47.537Z,99404.63
2023-03-29T13:24:33.391Z,99433.03
2023-03-29T13:27:05.474Z,99419.72
2023-03-29T13:29:57.732Z,99379.56
2023-03-29T13:32:30.418Z,99430.06
2023-03-29T13:35:27.924Z,99396.63
2023-03-29T13:38:03.802Z,99347.50
2023-03-29T13:40:30.348Z,99324.13
2023-03-29T13:42:58.916Z,99323.84
2023-03-29T13:45:27.519Z,99295.28
2023-03-29T13:48:22.652Z,99293.81
2023-03-29T13:50:57.586Z,99281.63
2023-03-29T13:53:33.192Z,99271.09
2023-03-29T13:55:59.711Z,99280.78
2023-03-29T13:58:27.316Z,99269.56
2023-03-29T14:01:18.843Z,99261.44
2023-03-29T14:03:46.390Z,99265.84
2023-03-29T14:06:15.108Z,99268.91
2023-03-29T14:08:42.283Z,99231.09
2023-03-29T14:11:23.020Z,99209.31
2023-03-29T14:13:55.561Z,99182.47
2023-03-29T14:16:21.982Z,99159.06
2023-03-29T14:18:51.275Z,99136.03
2023-03-29T14:21:17.984Z,99120.78
2023-03-29T14:23:46.584Z,99118.50
2023-03-29T14:26:15.860Z,99105.72
2023-03-29T14:28:46.406Z,99098.16
2023-03-29T14:31:33.024Z,99088.59
2023-03-29T14:34:00.352Z,99104.00
2023-03-29T14:36:27.441Z,99102.63
2023-03-29T14:39:01.618Z,99129.19
2023-03-29T14:41:31.602Z,99116.28
2023-03-29T14:43:58.039Z,99124.56
2023-03-29T14:46:25.437Z,99120.31
2023-03-29T14:48:52.057Z,99107.97
2023-03-29T14:51:18.489Z,99109.84
2023-03-29T14:53:45.068Z,99111.69
2023-03-29T14:56:11.906Z,99117.09
2023-03-29T14:58:38.349Z,99124.19
2023-03-29T15:01:18.614Z,99130.34
2023-03-29T15:03:54.162Z,99132.97
2023-03-29T15:06:21.615Z,99142.09
2023-03-29T15:08:58.079Z,99125.50
2023-03-29T15:11:31.072Z,99107.09
2023-03-29T15:14:11.401Z,99102.19
2023-03-29T15:16:39.204Z,99089.97
2023-03-29T15:19:05.580Z,99050.31
2023-03-29T15:21:33.990Z,99032.03
2023-03-29T15:24:01.909Z,99005.91
2023-03-29T15:26:32.333Z,98984.94
2023-03-29T15:29:12.209Z,98947.56
2023-03-29T15:31:41.138Z,98921.00
2023-03-29T15:34:14.095Z,98929.81
2023-03-29T15:36:42.226Z,98929.66
2023-03-29T15:39:16.994Z,98944.44
2023-03-29T15:41:43.855Z,98953.13
2023-03-29T15:44:10.705Z,98948.59
2023-03-29T15:46:37.471Z,98934.63
2023-03-29T15:49:04.978Z,98893.78
2023-03-29T15:51:31.428Z,98828.19
2023-03-29T15:53:57.777Z,98772.41
2023-03-29T15:56:24.200Z,98736.03
2023-03-29T15:58:50.899Z,98696.91
2023-03-29T16:01:36.638Z,98645.78
2023-03-29T16:04:14.340Z,98593.22
2023-03-29T16:06:41.270Z,98567.72
2023-03-29T16:09:08.627Z,98527.97
2023-03-29T16:11:35.304Z,98519.84
2023-03-29T16:14:01.771Z,98522.16
2023-03-29T16:16:28.226Z,98555.28
2023-03-29T16:18:54.649Z,98586.09
2023-03-29T16:21:22.110Z,98582.72
2023-03-29T16:23:48.535Z,98573.94
2023-03-29T16:26:16.538Z,98577.28
2023-03-29T16:28:43.077Z,98568.50
2023-03-29T16:31:11.136Z,98575.59
2023-03-29T16:33:37.962Z,98588.72
2023-03-29T16:36:04.980Z,98587.78
2023-03-29T16:38:31.613Z,98591.53
2023-03-29T16:40:58.119Z,98601.06
2023-03-29T16:43:24.508Z,98591.72
2023-03-29T16:45:50.938Z,98590.75
2023-03-29T16:48:18.314Z,98577.66
2023-03-29T16:50:50.842Z,98550.81
2023-03-29T16:53:18.462Z,98519.38
2023-03-29T16:55:48.193Z,98489.69
2023-03-29T16:58:15.342Z,98485.22
2023-03-29T17:00:41.874Z,98476.59
2023-03-29T17:03:08.899Z,98466.13
2023-03-29T17:05:41.476Z,98453.22
2023-03-29T17:08:10.059Z,98443.66
2023-03-29T17:10:36.948Z,98441.16
2023-03-29T17:13:03.304Z,98436.75
2023-03-29T17:15:29.740Z,98433.38
2023-03-29T17:17:56.317Z,98433.38
2023-03-29T17:20:22.772Z,98401.28
2023-03-29T17:22:52.036Z,98399.50
2023-03-29T17:25:18.473Z,98404.75
2023-03-29T17:27:46.081Z,98395.22
2023-03-29T17:30:12.804Z,98388.31
2023-03-29T17:32:41.373Z,98365.63
2023-03-29T17:35:09.061Z,98332.53
2023-03-29T17:37:36.296Z,98315.16
2023-03-29T17:40:15.293Z,98274.28
2023-03-29T17:42:42.004Z,98249.13
2023-03-29T17:45:09.535Z,98222.94
2023-03-29T17:47:36.628Z,98224.59
2023-03-29T17:50:04.146Z,98218.41
2023-03-29T17:52:30.962Z,98194.84
2023-03-29T17:54:57.330Z,98151.28
2023-03-29T17:57:23.798Z,98098.03
2023-03-29T17:59:50.280Z,98068.19
2023-03-29T18:02:17.761Z,98046.53
2023-03-29T18:04:44.245Z,97962.91
2023-03-29T18:07:11.320Z,97773.88
2023-03-29T18:09:37.808Z,97519.44
2023-03-29T18:12:04.406Z,97224.13
2023-03-29T18:14:30.960Z,96921.59
2023-03-29T18:16:57.383Z,96681.91
2023-03-29T18:19:23.862Z,96537.28
2023-03-29T18:21:51.032Z,96426.31
2023-03-29T18:24:17.481Z,96299.34
2023-03-29T18:26:43.868Z,96189.75
2023-03-29T18:29:10.279Z,96148.88
2023-03-29T18:31:36.724Z,96079.50
2023-03-29T18:34:03.201Z,95984.00
2023-03-29T18:36:30.371Z,95862.34
2023-03-29T18:39:02.305Z,95738.13
2023-03-29T18:41:28.681Z,95591.69
2023-03-29T18:43:57.208Z,95494.31
2023-03-29T18:46:23.696Z,95414.25
2023-03-29T18:48:50.140Z,95334.81
2023-03-29T18:51:16.640Z,95277.13
2023-03-29T18:53:44.248Z,95337.75
2023-03-29T18:56:11.106Z,95355.25
2023-03-29T18:58:37.453Z,95393.47
2023-03-29T19:01:05.128Z,95401.47
2023-03-29T19:03:32.436Z,95383.66
2023-03-29T19:05:59.017Z,95343.31
2023-03-29T19:08:26.193Z,95299.38
2023-03-29T19:10:53.280Z,95277.16
2023-03-29T19:13:19.676Z,95290.06
2023-03-29T19:15:47.404Z,95272.13
2023-03-29T19:18:13.862Z,95258.75
2023-03-29T19:20:40.315Z,95251.41
2023-03-29T19:23:06.746Z,95209.13
2023-03-29T19:25:33.249Z,95171.25
2023-03-29T19:27:59.843Z,95120.28
2023-03-29T19:30:26.206Z,95129.44
2023-03-29T19:32:52.849Z,95135.00
2023-03-29T19:35:19.280Z,95088.78
2023-03-29T19:37:46.034Z,95042.22
2023-03-29T19:40:13.489Z,95029.81
2023-03-29T19:42:40.399Z,95040.91
2023-03-29T19:45:08.237Z,95085.00
2023-03-29T19:47:34.918Z,95124.03
2023-03-29T19:50:01.883Z,95140.50
2023-03-29T19:52:28.352Z,95148.03
2023-03-29T19:54:55.918Z,95135.28
2023-03-29T19:57:22.927Z,95118.34
2023-03-29T19:59:49.327Z,95082.75
2023-03-29T20:02:15.848Z,95034.09
2023-03-29T20:04:42.449Z,95004.38
2023-03-29T20:07:08.899Z,94976.75
2023-03-29T20:09:35.287Z,94957.97
2023-03-29T20:12:01.646Z,94941.13
2023-03-29T20:14:28.100Z,94912.16
2023-03-29T20:16:54.547Z,94896.50
2023-03-29T20:19:25.229Z,94915.63
2023-03-29T20:21:55.010Z,94880.81
2023-03-29T20:24:22.132Z,94806.41
2023-03-29T20:26:48.524Z,94760.00
2023-03-29T20:29:15.259Z,94681.81
2023-03-29T20:31:41.717Z,94565.41
2023-03-29T20:34:08.125Z,94506.94
2023-03-29T20:36:34.576Z,94291.09
2023-03-29T20:39:01.180Z,94052.81
2023-03-29T20:41:27.628Z,93863.91
2023-03-29T20:44:00.265Z,93617.59
2023-03-29T20:46:33.517Z,93246.19
2023-03-29T20:49:07.264Z,92904.09
2023-03-29T20:51:33.717Z,92662.31
2023-03-29T20:54:04.735Z,92512.91
2023-03-29T20:56:32.499Z,92386.47
2023-03-29T20:58:58.913Z,92276.84
2023-03-29T21:01:27.886Z,92165.63
2023-03-29T21:03:54.350Z,92091.75
2023-03-29T21:06:21.007Z,92023.09
2023-03-29T21:08:47.418Z,91975.06
2023-03-29T21:11:13.835Z,91940.84
2023-03-29T21:13:41.488Z,91878.44
2023-03-29T21:16:07.981Z,91803.25
2023-03-29T21:18:38.599Z,91734.63
2023-03-29T21:21:06.818Z,91680.88
2023-03-29T21:23:33.270Z,91652.41
2023-03-29T21:25:59.631Z,91621.09
2023-03-29T21:28:26.118Z,91607.00
2023-03-29T21:30:52.575Z,91590.31
2023-03-29T21:33:19.150Z,91574.13
2023-03-29T21:35:47.890Z,91579.34
2023-03-29T21:38:14.727Z,91553.50
2023-03-29T21:40:41.069Z,91543.88
2023-03-29T21:43:07.640Z,91524.00
2023-03-29T21:45:33.973Z,91499.50
2023-03-29T21:48:00.645Z,91489.06
2023-03-29T21:50:27.027Z,91540.19
2023-03-29T21:52:53.431Z,91557.41
2023-03-29T21:55:19.996Z,91532.88
2023-03-29T21:57:46.388Z,91526.88
2023-03-29T22:00:15.582Z,91513.06
2023-03-29T22:02:42.536Z,91483.31
2023-03-29T22:05:09.381Z,91461.94
2023-03-29T22:07:38.555Z,91473.41
2023-03-29T22:10:07.145Z,91476.53
2023-03-29T22:12:34.487Z,91470.25
2023-03-29T22:15:01.528Z,91474.44
2023-03-29T22:17:28.537Z,91456.41
2023-03-29T22:19:57.067Z,91447.81
2023-03-29T22:22:24.314Z,91459.31
2023-03-29T22:24:54.740Z,91452.25
2023-03-29T22:27:22.181Z,91384.69
2023-03-29T22:29:48.960Z,91362.75
2023-03-29T22:32:15.591Z,91334.56
2023-03-29T22:34:42.108Z,91264.66
2023-03-29T22:37:08.638Z,91229.66
2023-03-29T22:39:35.690Z,91202.00
2023-03-29T22:42:02.117Z,91191.56
2023-03-29T22:44:28.525Z,90824.69
2023-03-29T22:46:55.830Z,90715.66
2023-03-29T22:49:22.268Z,90608.16
2023-03-29T22:51:48.974Z,90468.06
2023-03-29T22:54:15.578Z,90380.41
2023-03-29T22:56:42.199Z,90169.88
2023-03-29T22:59:08.703Z,90031.59
2023-03-29T23:01:35.118Z,89936.66
2023-03-29T23:04:01.537Z,89854.53
2023-03-29T23:06:27.930Z,89805.28
2023-03-29T23:08:54.302Z,89734.56
2023-03-29T23:11:21.494Z,89697.25
2023-03-29T23:13:48.689Z,89717.69
2023-03-29T23:16:15.552Z,89704.63
2023-03-29T23:18:42.185Z,89675.47
2023-03-29T23:21:09.266Z,89638.50
2023-03-29T23:23:35.802Z,89608.09
2023-03-29T23:26:02.515Z,89600.56
2023-03-29T23:28:30.451Z,89626.19
2023-03-29T23:31:03.571Z,89624.19
2023-03-29T23:33:33.192Z,89638.91
2023-03-29T23:36:00.196Z,89630.13
2023-03-29T23:38:27.745Z,89649.00
2023-03-29T23:41:02.084Z,89654.06
2023-03-29T23:43:33.241Z,89650.69
2023-03-29T23:46:01.068Z,89660.63
2023-03-29T23:48:28.049Z,89673.50
2023-03-29T23:50:57.043Z,89668.56
2023-03-29T23:53:24.184Z,89672.75
2023-03-29T23:55:50.522Z,89675.34
2023-03-29T23:58:17.116Z,89703.38
